createdAt,value
2018-09-19T00:00:11.981Z,1.60
2018-09-19T00:02:39.341Z,2.10
2018-09-19T00:05:06.067Z,2.00
2018-09-19T00:07:32.893Z,2.00
2018-09-19T00:09:59.714Z,1.70
2018-09-19T00:12:26.383Z,2.00
2018-09-19T00:14:53.289Z,1.90
2018-09-19T00:17:20.036Z,2.17
2018-09-19T00:19:46.868Z,1.80
2018-09-19T00:22:13.769Z,1.87
2018-09-19T00:24:40.493Z,1.60
2018-09-19T00:27:07.187Z,1.83
2018-09-19T00:29:33.993Z,1.67
2018-09-19T00:32:00.666Z,1.90
2018-09-19T00:34:27.379Z,1.87
2018-09-19T00:36:54.202Z,1.33
2018-09-19T00:39:20.925Z,1.83
2018-09-19T00:41:47.609Z,2.27
2018-09-19T00:44:14.460Z,1.77
2018-09-19T00:46:41.261Z,1.83
2018-09-19T00:49:08.099Z,1.63
2018-09-19T00:51:34.788Z,1.83
2018-09-19T00:54:01.433Z,1.87
2018-09-19T00:56:28.204Z,2.33
2018-09-19T00:58:55.001Z,1.50
2018-09-19T01:01:21.688Z,2.10
2018-09-19T01:03:48.848Z,2.20
2018-09-19T01:06:16.142Z,1.70
2018-09-19T01:08:42.760Z,1.90
2018-09-19T01:11:09.422Z,1.67
2018-09-19T01:13:36.092Z,1.83
2018-09-19T01:16:02.908Z,1.80
2018-09-19T01:18:29.601Z,1.73
2018-09-19T01:20:56.365Z,1.73
2018-09-19T01:23:23.033Z,2.20
2018-09-19T01:25:50.502Z,1.70
2018-09-19T01:28:17.245Z,2.27
2018-09-19T01:30:44.038Z,1.93
2018-09-19T01:33:10.709Z,1.70
2018-09-19T01:35:37.465Z,1.90
2018-09-19T01:38:04.164Z,1.90
2018-09-19T01:40:30.897Z,1.90
2018-09-19T01:42:57.561Z,2.03
2018-09-19T01:45:24.398Z,1.70
2018-09-19T01:47:51.098Z,1.83
2018-09-19T01:50:18.022Z,1.50
2018-09-19T01:52:45.074Z,1.70
2018-09-19T01:55:11.939Z,1.90
2018-09-19T01:57:38.606Z,1.97
2018-09-19T02:00:05.241Z,1.60
2018-09-19T02:02:31.903Z,2.43
2018-09-19T02:04:58.823Z,2.00
2018-09-19T02:07:25.502Z,2.00
2018-09-19T02:09:52.167Z,1.80
2018-09-19T02:12:18.813Z,1.97
2018-09-19T02:14:45.626Z,1.90
2018-09-19T02:17:12.353Z,2.00
2018-09-19T02:19:39.193Z,1.60
2018-09-19T02:22:05.909Z,1.50
2018-09-19T02:24:32.557Z,1.70
2018-09-19T02:26:59.364Z,1.70
2018-09-19T02:29:26.202Z,1.83
2018-09-19T02:31:52.882Z,2.30
2018-09-19T02:34:19.638Z,1.67
2018-09-19T02:36:46.315Z,1.80
2018-09-19T02:39:13.078Z,2.47
2018-09-19T02:41:39.784Z,2.10
2018-09-19T02:44:06.505Z,1.73
2018-09-19T02:46:33.207Z,2.53
2018-09-19T02:49:00.498Z,2.30
2018-09-19T02:51:27.630Z,1.73
2018-09-19T02:53:54.388Z,2.03
2018-09-19T02:56:21.166Z,1.80
2018-09-19T02:58:48.076Z,1.60
2018-09-19T03:01:14.866Z,2.03
2018-09-19T03:03:41.509Z,2.17
2018-09-19T03:06:08.831Z,2.10
2018-09-19T03:08:35.602Z,2.47
2018-09-19T03:11:02.308Z,2.27
2018-09-19T03:13:29.141Z,2.10
2018-09-19T03:15:55.784Z,2.03
2018-09-19T03:18:22.885Z,1.97
2018-09-19T03:20:49.569Z,1.93
2018-09-19T03:23:16.309Z,2.20
2018-09-19T03:25:43.078Z,2.40
2018-09-19T03:28:10.134Z,2.13
2018-09-19T03:30:37.981Z,1.80
2018-09-19T03:33:04.742Z,2.23
2018-09-19T03:35:31.808Z,2.50
2018-09-19T03:37:58.595Z,1.57
2018-09-19T03:40:25.505Z,2.27
2018-09-19T03:42:52.963Z,2.17
2018-09-19T03:45:19.778Z,2.27
2018-09-19T03:47:46.434Z,2.20
2018-09-19T03:50:13.161Z,2.00
2018-09-19T03:52:39.957Z,1.90
2018-09-19T03:55:06.725Z,2.23
2018-09-19T03:57:33.418Z,2.00
2018-09-19T04:00:00.070Z,2.10
2018-09-19T04:02:26.746Z,1.87
2018-09-19T04:04:54.193Z,2.10
2018-09-19T04:07:20.968Z,2.13
2018-09-19T04:09:47.692Z,2.53
2018-09-19T04:12:14.597Z,2.17
2018-09-19T04:14:41.281Z,2.33
2018-09-19T04:17:08.041Z,2.70
2018-09-19T04:19:34.864Z,2.00
2018-09-19T04:22:01.622Z,2.33
2018-09-19T04:24:28.332Z,2.00
2018-09-19T04:26:55.085Z,1.83
2018-09-19T04:29:21.739Z,2.20
2018-09-19T04:31:48.498Z,2.10
2018-09-19T04:34:16.662Z,2.00
2018-09-19T04:36:43.715Z,1.73
2018-09-19T04:39:11.778Z,2.13
2018-09-19T04:41:38.496Z,2.10
2018-09-19T04:44:05.922Z,2.07
2018-09-19T04:46:32.635Z,2.20
2018-09-19T04:48:59.337Z,2.30
2018-09-19T04:51:26.120Z,2.30
2018-09-19T04:53:52.777Z,2.50
2018-09-19T04:56:19.543Z,2.03
2018-09-19T04:58:46.554Z,1.77
2018-09-19T05:01:13.295Z,2.63
2018-09-19T05:03:40.490Z,1.90
2018-09-19T05:06:07.189Z,2.33
2018-09-19T05:08:33.876Z,2.30
2018-09-19T05:11:00.583Z,2.30
2018-09-19T05:13:27.519Z,2.80
2018-09-19T05:15:54.369Z,2.20
2018-09-19T05:18:21.257Z,2.23
2018-09-19T05:20:48.173Z,2.23
2018-09-19T05:23:15.005Z,2.53
2018-09-19T05:25:42.909Z,2.40
2018-09-19T05:28:09.702Z,2.37
2018-09-19T05:30:36.490Z,2.27
2018-09-19T05:33:03.203Z,2.13
2018-09-19T05:35:29.986Z,2.20
2018-09-19T05:37:57.817Z,2.27
2018-09-19T05:40:25.284Z,2.27
2018-09-19T05:42:52.097Z,2.73
2018-09-19T05:45:18.804Z,2.73
2018-09-19T05:47:45.502Z,2.53
2018-09-19T06:01:15.591Z,2.37
2018-09-19T06:03:42.459Z,2.73
2018-09-19T06:06:09.268Z,2.30
2018-09-19T06:08:36.134Z,2.30
2018-09-19T06:11:03.605Z,2.03
2018-09-19T06:13:30.425Z,2.17
2018-09-19T06:15:57.182Z,2.77
2018-09-19T06:18:24.356Z,2.23
2018-09-19T06:20:52.119Z,2.30
2018-09-19T06:23:18.988Z,2.37
2018-09-19T06:25:45.869Z,2.60
2018-09-19T06:28:12.745Z,2.37
2018-09-19T06:30:40.538Z,2.30
2018-09-19T06:33:07.604Z,2.40
2018-09-19T06:35:34.912Z,2.23
2018-09-19T06:38:01.738Z,2.87
2018-09-19T06:40:28.822Z,3.00
2018-09-19T06:42:55.614Z,2.90
2018-09-19T06:45:22.433Z,2.80
2018-09-19T06:47:50.034Z,2.63
2018-09-19T06:50:16.858Z,2.20
2018-09-19T06:52:43.891Z,2.77
2018-09-19T06:55:12.274Z,3.97
2018-09-19T06:57:39.178Z,3.60
2018-09-19T07:00:06.127Z,3.50
2018-09-19T07:02:32.988Z,4.47
2018-09-19T07:04:59.906Z,4.33
2018-09-19T07:07:26.735Z,3.90
2018-09-19T07:09:53.716Z,4.30
2018-09-19T07:12:20.642Z,4.53
2018-09-19T07:14:47.500Z,4.53
2018-09-19T07:17:14.323Z,4.47
2018-09-19T07:19:41.141Z,4.33
2018-09-19T07:22:08.037Z,4.47
2018-09-19T07:24:34.805Z,4.70
2018-09-19T07:27:02.205Z,4.77
2018-09-19T07:29:28.938Z,4.70
2018-09-19T07:31:55.894Z,4.13
2018-09-19T07:34:24.001Z,4.60
2018-09-19T07:36:51.491Z,4.33
2018-09-19T07:39:18.251Z,4.37
2018-09-19T07:41:45.143Z,4.77
2018-09-19T07:44:11.890Z,4.80
2018-09-19T07:46:38.689Z,4.60
2018-09-19T07:49:05.369Z,3.90
2018-09-19T07:51:32.370Z,4.40
2018-09-19T07:53:59.091Z,4.20
2018-09-19T07:56:25.885Z,4.73
2018-09-19T07:58:52.681Z,4.83
2018-09-19T08:01:19.512Z,4.23
2018-09-19T08:03:46.250Z,4.40
2018-09-19T08:06:13.126Z,4.17
2018-09-19T08:08:40.820Z,4.50
2018-09-19T08:11:07.558Z,4.43
2018-09-19T08:13:34.892Z,3.63
2018-09-19T08:16:01.824Z,3.97
2018-09-19T08:18:28.578Z,3.87
2018-09-19T08:20:55.413Z,4.10
2018-09-19T08:23:22.212Z,3.57
2018-09-19T08:25:49.133Z,3.80
2018-09-19T08:28:15.883Z,4.30
2018-09-19T08:30:42.733Z,4.00
2018-09-19T08:33:09.467Z,3.27
2018-09-19T08:35:36.237Z,3.87
2018-09-19T08:38:03.628Z,4.03
2018-09-19T08:40:31.134Z,3.17
2018-09-19T08:42:57.879Z,3.47
2018-09-19T08:45:24.637Z,3.27
2018-09-19T08:47:51.379Z,3.73
2018-09-19T08:50:18.091Z,3.50
2018-09-19T08:52:44.864Z,3.57
2018-09-19T08:55:11.604Z,3.37
2018-09-19T08:57:38.434Z,3.13
2018-09-19T09:00:05.274Z,3.10
2018-09-19T09:02:32.049Z,2.77
2018-09-19T09:04:58.904Z,3.70
2018-09-19T09:07:25.864Z,3.77
2018-09-19T09:09:52.600Z,3.37
2018-09-19T09:12:19.939Z,3.33
2018-09-19T09:14:46.899Z,3.17
2018-09-19T09:17:13.779Z,3.40
2018-09-19T09:19:40.710Z,2.63
2018-09-19T09:22:07.759Z,3.33
2018-09-19T09:24:34.765Z,3.07
2018-09-19T09:27:01.967Z,2.53
2018-09-19T09:29:28.764Z,2.87
2018-09-19T09:31:55.769Z,3.27
2018-09-19T09:34:22.750Z,2.93
2018-09-19T09:36:49.842Z,2.93
2018-09-19T09:39:16.952Z,2.70
2018-09-19T09:41:43.800Z,2.87
2018-09-19T09:44:10.552Z,2.40
2018-09-19T09:46:38.292Z,3.27
2018-09-19T09:49:05.117Z,2.70
2018-09-19T09:51:31.975Z,2.77
2018-09-19T09:53:58.707Z,2.87
2018-09-19T09:56:25.604Z,3.10
2018-09-19T09:58:52.579Z,2.40
2018-09-19T10:01:19.729Z,2.60
2018-09-19T10:03:46.937Z,2.47
2018-09-19T10:06:13.868Z,2.60
2018-09-19T10:08:40.751Z,2.80
2018-09-19T10:11:07.640Z,3.10
2018-09-19T10:13:34.500Z,2.77
2018-09-19T10:16:01.828Z,3.20
2018-09-19T10:18:28.667Z,3.00
2018-09-19T10:20:55.390Z,2.60
2018-09-19T10:23:24.332Z,2.33
2018-09-19T10:25:51.155Z,2.83
2018-09-19T10:28:18.449Z,2.37
2018-09-19T10:30:45.372Z,2.37
2018-09-19T10:33:12.240Z,2.30
2018-09-19T10:35:38.934Z,2.67
2018-09-19T10:38:05.710Z,2.30
2018-09-19T10:40:32.510Z,2.57
2018-09-19T10:42:59.466Z,2.33
2018-09-19T10:45:26.536Z,2.00
2018-09-19T10:47:53.609Z,2.53
2018-09-19T10:50:20.324Z,2.63
2018-09-19T10:52:47.538Z,2.10
2018-09-19T10:55:14.465Z,2.40
2018-09-19T10:57:41.298Z,2.80
2018-09-19T11:00:08.121Z,2.90
2018-09-19T11:02:35.545Z,2.83
2018-09-19T11:05:02.447Z,2.47
2018-09-19T11:07:29.289Z,1.93
2018-09-19T11:09:56.002Z,2.77
2018-09-19T11:12:22.692Z,2.40
2018-09-19T11:14:49.380Z,2.60
2018-09-19T11:17:16.768Z,3.13
2018-09-19T11:19:43.571Z,2.40
2018-09-19T11:22:10.405Z,2.33
2018-09-19T11:24:38.433Z,2.20
2018-09-19T11:27:05.147Z,2.10
2018-09-19T11:29:31.875Z,2.93
2018-09-19T11:31:58.636Z,2.30
2018-09-19T11:34:25.613Z,2.53
2018-09-19T11:36:53.064Z,2.27
2018-09-19T11:39:19.717Z,2.40
2018-09-19T11:41:46.657Z,2.47
2018-09-19T11:44:13.500Z,2.73
2018-09-19T11:46:40.287Z,2.43
2018-09-19T11:49:07.299Z,2.33
2018-09-19T11:51:34.341Z,2.27
2018-09-19T11:54:01.049Z,2.37
2018-09-19T11:56:27.763Z,2.90
2018-09-19T11:58:54.646Z,2.30
2018-09-19T12:01:21.521Z,3.10
2018-09-19T12:03:48.417Z,2.20
2018-09-19T12:06:15.089Z,2.50
2018-09-19T12:08:41.907Z,2.50
2018-09-19T12:11:08.960Z,2.20
2018-09-19T12:13:36.414Z,2.47
2018-09-19T12:16:03.292Z,1.97
2018-09-19T12:18:30.013Z,2.00
2018-09-19T12:20:56.987Z,2.50
2018-09-19T12:23:23.804Z,2.43
2018-09-19T12:25:50.645Z,2.30
2018-09-19T12:28:17.343Z,2.37
2018-09-19T12:30:44.330Z,2.30
2018-09-19T12:33:11.974Z,2.70
2018-09-19T12:35:38.934Z,2.40
2018-09-19T12:38:05.692Z,2.00
2018-09-19T12:40:33.286Z,2.00
2018-09-19T12:43:00.120Z,2.60
2018-09-19T12:45:27.283Z,2.37
2018-09-19T12:47:54.116Z,2.43
2018-09-19T12:50:21.172Z,2.20
2018-09-19T12:52:48.960Z,2.33
2018-09-19T12:55:16.410Z,2.40
2018-09-19T12:57:43.892Z,1.83
2018-09-19T13:00:11.088Z,2.30
2018-09-19T13:02:37.881Z,2.30
2018-09-19T13:05:05.288Z,1.97
2018-09-19T13:07:32.065Z,2.30
2018-09-19T13:09:58.908Z,2.27
2018-09-19T13:12:25.855Z,2.27
2018-09-19T13:14:52.669Z,1.97
2018-09-19T13:17:19.529Z,2.13
2018-09-19T13:19:46.180Z,2.20
2018-09-19T13:22:12.993Z,1.77
2018-09-19T13:24:40.487Z,2.10
2018-09-19T13:27:08.264Z,2.23
2018-09-19T13:29:35.151Z,2.10
2018-09-19T13:32:02.605Z,2.37
2018-09-19T13:34:29.420Z,2.40
2018-09-19T13:36:56.181Z,2.23
2018-09-19T13:39:23.349Z,2.30
2018-09-19T13:41:50.718Z,1.90
2018-09-19T13:44:17.892Z,1.83
2018-09-19T13:46:44.733Z,2.50
2018-09-19T13:49:11.567Z,2.30
2018-09-19T13:51:38.319Z,2.40
2018-09-19T13:54:05.109Z,1.73
2018-09-19T13:56:32.557Z,1.77
2018-09-19T13:58:59.301Z,2.03
2018-09-19T14:01:26.219Z,2.33
2018-09-19T14:03:53.009Z,2.00
2018-09-19T14:06:20.028Z,2.13
2018-09-19T14:08:47.262Z,2.10
2018-09-19T14:11:14.292Z,1.87
2018-09-19T14:13:41.024Z,2.27
2018-09-19T14:16:07.715Z,2.53
2018-09-19T14:18:35.269Z,2.27
2018-09-19T14:21:02.206Z,2.40
2018-09-19T14:23:28.978Z,2.20
2018-09-19T14:25:55.705Z,1.77
2018-09-19T14:28:22.668Z,2.10
2018-09-19T14:30:49.527Z,2.10
2018-09-19T14:33:16.412Z,2.40
2018-09-19T14:35:43.442Z,1.80
2018-09-19T14:38:10.879Z,2.57
2018-09-19T14:40:37.635Z,2.27
2018-09-19T14:43:04.404Z,2.40
2018-09-19T14:45:31.844Z,2.10
2018-09-19T14:47:58.616Z,2.13
2018-09-19T14:50:25.362Z,1.90
2018-09-19T14:52:52.091Z,1.90
2018-09-19T14:55:19.073Z,2.27
2018-09-19T14:57:46.207Z,1.80
2018-09-19T15:00:13.275Z,2.20
2018-09-19T15:02:40.067Z,2.10
2018-09-19T15:05:06.849Z,1.97
2018-09-19T15:07:33.604Z,1.90
2018-09-19T15:10:00.400Z,2.20
2018-09-19T15:12:27.164Z,2.40
2018-09-19T15:14:53.954Z,2.07
2018-09-19T15:17:20.753Z,2.60
2018-09-19T15:19:47.483Z,1.77
2018-09-19T15:22:14.287Z,1.73
2018-09-19T15:24:41.318Z,2.10
2018-09-19T15:27:08.116Z,2.00
2018-09-19T15:29:34.965Z,2.10
2018-09-19T15:32:02.679Z,2.27
2018-09-19T15:34:29.480Z,1.83
2018-09-19T15:36:56.531Z,1.60
2018-09-19T15:39:23.344Z,1.90
2018-09-19T15:41:50.116Z,2.00
2018-09-19T15:44:17.006Z,2.10
2018-09-19T15:46:43.796Z,2.00
2018-09-19T15:49:10.564Z,2.00
2018-09-19T15:51:37.479Z,2.43
2018-09-19T15:54:04.220Z,2.00
2018-09-19T15:56:31.120Z,1.90
2018-09-19T15:58:57.941Z,2.30
2018-09-19T16:01:24.743Z,1.80
2018-09-19T16:03:51.837Z,1.97
2018-09-19T16:06:18.682Z,1.90
2018-09-19T16:08:45.410Z,2.10
2018-09-19T16:11:12.229Z,1.93
2018-09-19T16:13:39.074Z,2.40
2018-09-19T16:16:05.979Z,1.70
2018-09-19T16:18:33.320Z,1.87
2018-09-19T16:21:00.186Z,2.47
2018-09-19T16:23:26.941Z,2.03
2018-09-19T16:25:53.883Z,1.73
2018-09-19T16:28:20.834Z,2.37
2018-09-19T16:30:47.730Z,2.30
2018-09-19T16:33:14.523Z,2.13
2018-09-19T16:35:41.387Z,2.20
2018-09-19T16:38:08.197Z,2.07
2018-09-19T16:40:35.627Z,2.30
2018-09-19T16:43:03.184Z,2.47
2018-09-19T16:45:30.139Z,2.30
2018-09-19T16:47:57.647Z,2.30
2018-09-19T16:50:24.465Z,2.60
2018-09-19T16:52:51.499Z,2.00
2018-09-19T16:55:18.529Z,2.00
2018-09-19T16:57:46.442Z,2.20
2018-09-19T17:00:15.090Z,1.97
2018-09-19T17:02:42.031Z,2.20
2018-09-19T17:05:08.893Z,1.93
2018-09-19T17:07:35.909Z,2.20
2018-09-19T17:10:02.951Z,2.03
2018-09-19T17:12:29.720Z,2.27
2018-09-19T17:14:56.777Z,2.23
2018-09-19T17:17:23.612Z,2.30
2018-09-19T17:19:50.344Z,2.50
2018-09-19T17:22:17.298Z,1.90
2018-09-19T17:24:44.149Z,2.33
2018-09-19T17:27:10.960Z,2.03
2018-09-19T17:29:37.891Z,1.90
2018-09-19T17:32:04.952Z,2.40
2018-09-19T17:34:32.196Z,2.57
2018-09-19T17:36:59.585Z,2.07
2018-09-19T17:39:26.420Z,1.87
2018-09-19T17:41:53.671Z,1.93
2018-09-19T17:44:20.528Z,2.30
2018-09-19T17:46:47.308Z,2.30
2018-09-19T17:49:14.132Z,2.27
2018-09-19T17:51:41.085Z,2.10
2018-09-19T17:54:07.822Z,1.97
2018-09-19T17:56:35.014Z,2.20
2018-09-19T17:59:01.997Z,2.27
2018-09-19T18:01:28.740Z,2.13
2018-09-19T18:03:55.602Z,1.97
2018-09-19T18:06:22.426Z,1.93
2018-09-19T18:11:35.689Z,2.30
2018-09-19T18:14:02.748Z,2.00
2018-09-19T18:16:29.602Z,1.87
2018-09-19T18:18:56.339Z,2.23
2018-09-19T18:21:23.074Z,2.13
2018-09-19T18:23:50.131Z,2.00
2018-09-19T18:26:16.878Z,2.30
2018-09-19T18:28:43.699Z,2.00
2018-09-19T18:31:10.393Z,2.20
2018-09-19T18:33:37.707Z,2.47
2018-09-19T18:36:04.567Z,2.10
2018-09-19T18:38:31.530Z,1.93
2018-09-19T18:40:58.442Z,1.97
2018-09-19T18:43:25.991Z,1.83
2018-09-19T18:45:52.676Z,2.27
2018-09-19T18:48:19.616Z,2.20
2018-09-19T18:50:46.449Z,2.00
2018-09-19T18:53:13.226Z,1.83
2018-09-19T18:55:40.633Z,2.70
2018-09-19T18:58:07.545Z,2.10
2018-09-19T19:00:35.139Z,2.07
2018-09-19T19:03:01.905Z,2.20
2018-09-19T19:05:29.464Z,2.00
2018-09-19T19:07:56.373Z,2.20
2018-09-19T19:10:23.251Z,2.20
2018-09-19T19:12:50.114Z,2.00
2018-09-19T19:15:16.860Z,2.17
2018-09-19T19:17:43.635Z,2.53
2018-09-19T19:20:10.883Z,2.60
2018-09-19T19:22:37.638Z,2.10
2018-09-19T19:25:04.318Z,2.07
2018-09-19T19:27:31.139Z,2.10
2018-09-19T19:29:58.011Z,2.10
2018-09-19T19:32:24.933Z,2.53
2018-09-19T19:34:51.679Z,2.33
2018-09-19T19:37:18.520Z,2.30
2018-09-19T19:39:45.842Z,1.90
2018-09-19T19:42:12.713Z,2.10
2018-09-19T19:44:39.462Z,2.30
2018-09-19T19:47:06.477Z,2.37
2018-09-19T19:49:33.380Z,2.10
2018-09-19T19:52:00.497Z,1.83
2018-09-19T19:54:28.029Z,2.00
2018-09-19T19:56:54.789Z,2.47
2018-09-19T19:59:21.705Z,2.27
2018-09-19T20:01:48.418Z,1.77
2018-09-19T20:04:15.358Z,1.83
2018-09-19T20:06:42.142Z,1.73
2018-09-19T20:09:09.324Z,2.30
2018-09-19T20:11:36.466Z,2.13
2018-09-19T20:14:03.386Z,2.03
2018-09-19T20:16:30.379Z,2.37
2018-09-19T20:18:57.906Z,2.00
2018-09-19T20:21:24.756Z,2.13
2018-09-19T20:23:51.652Z,2.37
2018-09-19T20:26:18.371Z,2.43
2018-09-19T20:28:45.458Z,2.17
2018-09-19T20:31:12.173Z,2.17
2018-09-19T20:33:39.410Z,2.13
2018-09-19T20:36:06.121Z,2.50
2018-09-19T20:38:33.741Z,2.73
2018-09-19T20:41:00.472Z,2.10
2018-09-19T20:43:27.227Z,2.10
2018-09-19T20:45:54.205Z,2.60
2018-09-19T20:48:21.229Z,2.37
2018-09-19T20:50:48.001Z,2.13
2018-09-19T20:53:14.948Z,2.17
2018-09-19T20:55:41.812Z,1.80
2018-09-19T20:58:09.145Z,2.20
2018-09-19T21:00:36.127Z,2.87
2018-09-19T21:03:03.063Z,2.10
2018-09-19T21:05:30.968Z,2.67
2018-09-19T21:07:57.658Z,2.20
2018-09-19T21:10:24.432Z,2.10
2018-09-19T21:12:51.319Z,2.73
2018-09-19T21:15:18.121Z,2.63
2018-09-19T21:17:44.995Z,2.17
2018-09-19T21:20:11.734Z,2.40
2018-09-19T21:22:39.496Z,2.37
2018-09-19T21:25:06.174Z,2.40
2018-09-19T21:27:32.937Z,2.10
2018-09-19T21:29:59.599Z,2.27
2018-09-19T21:32:26.302Z,2.50
2018-09-19T21:34:53.495Z,2.10
2018-09-19T21:37:20.400Z,2.57
2018-09-19T21:39:47.216Z,2.10
2018-09-19T21:42:14.037Z,2.37
2018-09-19T21:44:40.754Z,2.30
2018-09-19T21:47:07.636Z,2.57
2018-09-19T21:49:34.961Z,2.73
2018-09-19T21:52:01.820Z,2.40
2018-09-19T21:54:28.640Z,2.20
2018-09-19T21:56:56.300Z,3.13
2018-09-19T21:59:23.053Z,2.40
2018-09-19T22:01:55.287Z,2.40
2018-09-19T22:04:22.317Z,2.43
2018-09-19T22:06:49.044Z,2.37
2018-09-19T22:09:15.996Z,2.37
2018-09-19T22:11:42.734Z,2.80
2018-09-19T22:14:09.674Z,2.47
2018-09-19T22:16:36.552Z,2.70
2018-09-19T22:19:03.375Z,2.23
2018-09-19T22:21:30.097Z,2.33
2018-09-19T22:23:57.167Z,2.43
2018-09-19T22:26:24.041Z,2.30
2018-09-19T22:28:50.821Z,2.80
2018-09-19T22:31:17.603Z,2.50
2018-09-19T22:33:44.419Z,2.80
2018-09-19T22:36:11.166Z,2.63
2018-09-19T22:38:38.033Z,2.80
2018-09-19T22:41:04.875Z,2.40
2018-09-19T22:43:31.712Z,2.40
2018-09-19T22:45:58.462Z,2.60
2018-09-19T22:48:25.151Z,3.13
2018-09-19T22:50:52.437Z,2.70
2018-09-19T22:53:19.127Z,3.23
2018-09-19T22:55:45.949Z,2.90
2018-09-19T22:58:12.709Z,2.93
2018-09-19T23:00:39.641Z,2.83
2018-09-19T23:03:06.291Z,2.57
2018-09-19T23:05:33.203Z,2.63
2018-09-19T23:08:00.064Z,2.87
2018-09-19T23:10:26.903Z,3.13
2018-09-19T23:12:53.618Z,2.80
2018-09-19T23:15:20.389Z,3.00
2018-09-19T23:17:47.248Z,2.80
2018-09-19T23:20:14.048Z,2.90
2018-09-19T23:22:40.799Z,2.90
2018-09-19T23:25:07.615Z,2.57
2018-09-19T23:27:34.464Z,2.93
2018-09-19T23:30:01.139Z,2.93
2018-09-19T23:32:27.988Z,2.80
2018-09-19T23:34:54.762Z,3.00
2018-09-19T23:37:21.588Z,2.90
2018-09-19T23:39:48.279Z,3.00
2018-09-19T23:42:14.983Z,2.77
2018-09-19T23:44:41.714Z,2.77
2018-09-19T23:47:08.508Z,2.70
2018-09-19T23:49:35.239Z,2.77
2018-09-19T23:52:01.987Z,2.57
2018-09-19T23:54:28.734Z,2.43
2018-09-19T23:56:55.723Z,3.37
2018-09-19T23:59:22.541Z,2.17
